Terminal Aerodrome Forecast
Issued by NWS

Home | Current Version | Previous Version | Graphics & Text | Print | Product List | Glossary On
Versions: 1 2 3 4 5 6 7 8 9 10 11 12 13 14 15
364
FTUS43 KMPX 180520
TAFAXN
TAF
KAXN 180520Z 1806/1906 31005KT P6SM BKN200
     FM180900 26005KT P6SM BKN100
     FM182000 29005KT P6SM BKN100 BKN250
     FM190000 VRB03KT P6SM SKC=

USA.gov is the U.S. government's official web portal to all federal, state and local government web resources and services.